SAW weather

Sabiha Gökçen International Airport
Istanbul, İstanbul Province, Turkey

Public forecast

Using degrees Celsius for public forecast. Weather courtesy of forecast.io.

Current aviation weather report (METAR) for Sabiha Gökçen International Airport

Retrieved 2020/04/08 05:50 UTC (12 minutes ago):

LTFJ 080550Z 06020KT 9999 SCT030 10/04 Q1024 NOSIG

Aviation forecast (TAF) for Sabiha Gökçen International Airport

Retrieved 2020/04/08 06:03 UTC (0 seconds ago):

TAF LTFJ 080440Z 0806/0906 06025G35KT 9999 SCT030 BECMG 0820/0823 05015KT SCT010 BKN030